• Join FlightAware (Why Join?)
  • Login
  • US Flag 
01:55AM EDT


 

Airport Tracker/Info


-or-


 

Live Flight TrackerFlight Track Log ✈ UAE161 ✈ 06-May-2013 ✈ OMDB / DXB - EIDW / DUB

Flight Track Log - Related Links

Times and Time Zones

All times are in EDT time to prevent confusion due to time zone crossing. See the UAE161 flight status page for this flight to view local times or setup timezone preferences in your user account.

Time Position Orientation Groundspeed Altitude Reporting Facility
EDT Latitude Longitude Course Direction KTS MPH feet Rate Location/Type
11:43PM 25.2690 55.3420 299° West 196 226 700  Level FlightAware
11:44PM 25.2800 55.3230 303° West 196 226 1,700 2,040 Climbing FlightAware
11:44PM 25.2940 55.2970 301° West 217 250 2,600 1,620 Climbing FlightAware
11:45PM 25.3190 55.2530 302° West 229 264 3,600 1,200 Climbing FlightAware
11:45PM 25.3310 55.2310 301° West 231 266 4,000 1,800 Climbing FlightAware
11:46PM 25.3500 55.1880 296° West 251 289 5,300 1,980 Climbing FlightAware
11:46PM 25.3530 55.1470 275° West 278 320 6,000 1,680 Climbing FlightAware
11:47PM 25.3560 55.1040 274° West 276 318 7,000 2,400 Climbing FlightAware
11:47PM 25.3590 55.0700 276° West 279 321 8,200 2,820 Climbing FlightAware
11:47PM 25.3610 55.0480 276° West 281 323 8,900 2,700 Climbing FlightAware
11:48PM 25.3650 54.9900 274° West 292 336 10,700 1,860 Climbing FlightAware
11:49PM 25.3710 54.9160 275° West 346 398 11,600 1,500 Climbing FlightAware
11:50PM 25.3770 54.8430 275° West 373 429 12,900 2,460 Climbing FlightAware
11:50PM 25.3890 54.7570 279° West 383 441 15,100 2,700 Climbing FlightAware
11:51PM 25.4090 54.6740 285° West 386 444 17,000 2,580 Climbing FlightAware
11:52PM 25.4310 54.5870 286° West 393 452 19,000 2,580 Climbing FlightAware
11:53PM 25.4540 54.4910 285° West 393 452 21,100 2,220 Climbing FlightAware
11:53PM 25.4720 54.4190 285° West 401 461 22,400 1,980 Climbing FlightAware
11:54PM 25.4920 54.3360 285° West 407 468 23,800 2,040 Climbing FlightAware
11:55PM 25.5160 54.2400 286° West 415 478 25,300 1,800 Climbing FlightAware
11:55PM 25.5360 54.1570 285° West 424 488 26,400 1,620 Climbing FlightAware
11:56PM 25.5560 54.0730 285° West 431 496 27,500 1,620 Climbing FlightAware
11:57PM 25.5800 53.9740 285° West 437 503 28,700 1,680 Climbing FlightAware
11:57PM 25.5980 53.9000 285° West 438 504 29,800 1,980 Climbing FlightAware
11:58PM 25.6210 53.8030 285° West 427 491 31,400 1,440 Climbing FlightAware
11:59PM 25.6450 53.7020 285° West 420 483 32,000 480 Climbing FlightAware
12:01AM 25.7877 53.5645 319° Northwest  Level Estimated
12:01AM 25.7220 53.3790 319° Northwest 417 480 33,000  Level FlightAware
12:02AM 25.8750 53.4801 319° Northwest  Level Estimated
12:04AM 25.9011 53.2062 319° Northwest  Level Estimated
12:04AM 25.7610 53.1160 319° Northwest 425 489 34,000  Level FlightAware
12:04AM 25.7870 53.0280 288° West 437 503 34,000  Level FlightAware
12:05AM 25.8310 52.9360 298° West 443 510 34,000  Level FlightAware
12:06AM 25.8690 52.8570 298° West 441 507 34,000  Level FlightAware
12:06AM 25.9060 52.7820 299° West 433 498 34,000  Level FlightAware
12:07AM 25.9500 52.6890 298° West 431 496 34,000  Level FlightAware
12:08AM 25.9870 52.6110 298° West 430 495 34,000  Level FlightAware
12:08AM 26.0280 52.5250 298° West 428 493 34,000  Level FlightAware
12:09AM 26.0720 52.4330 298° West 426 490 34,000  Level FlightAware
12:10AM 26.1080 52.3580 298° West 426 490 34,000  Level FlightAware
12:11AM 26.1490 52.2720 298° West 423 487 34,000  Level FlightAware
12:11AM 26.1860 52.1940 298° West 424 488 34,000  Level FlightAware
12:12AM 26.2350 52.0900 298° West 422 486 34,000  Level FlightAware
12:13AM 26.2780 51.9990 298° West 422 486 34,000  Level FlightAware
12:14AM 26.3130 51.9230 297° West 424 488 34,000  Level FlightAware
12:14AM 26.3490 51.8470 298° West 424 488 34,000  Level FlightAware
12:15AM 26.3910 51.7570 298° West 423 487 34,000  Level FlightAware
12:16AM 26.4270 51.6800 298° West 423 487 34,000  Level FlightAware
12:16AM 26.4680 51.5920 298° West 424 488 34,000  Level FlightAware
12:17AM 26.5040 51.5160 298° West 425 489 34,000  Level FlightAware
12:18AM 26.5390 51.4400 297° West 425 489 34,000  Level FlightAware
12:19AM 26.5810 51.3500 298° West 424 488 34,000  Level FlightAware
12:19AM 26.6160 51.2700 296° West 421 484 34,000  Level FlightAware
12:20AM 26.6480 51.1900 294° West 416 479 34,000  Level FlightAware
12:21AM 26.6910 51.0780 293° West 419 482 34,000  Level FlightAware
12:22AM 26.7390 50.9560 294° West 419 482 34,000  Level FlightAware
12:24AM 26.8170 50.7530 293° West 418 481 34,000  Level FlightAware
12:25AM 26.8920 50.5580 293° West 415 478 34,000  Level FlightAware
12:26AM 26.9220 50.4790 293° West 415 478 34,000  Level FlightAware
12:27AM 26.9540 50.3930 293° West 415 478 34,000  Level FlightAware
12:27AM 26.9790 50.3260 293° West 415 478 34,000  Level FlightAware
12:28AM 27.0050 50.2580 293° West 415 478 34,000  Level FlightAware
12:29AM 27.0370 50.1740 293° West 415 478 34,000  Level FlightAware
12:29AM 27.0620 50.1070 293° West 415 478 34,000  Level FlightAware
12:30AM 27.0880 50.0390 293° West 415 478 34,000  Level FlightAware
12:31AM 27.1130 49.9720 293° West 415 478 34,000  Level FlightAware
12:31AM 27.1390 49.9040 293° West 415 478 34,000  Level FlightAware
12:32AM 27.1710 49.8200 293° West 415 478 34,000  Level FlightAware
12:33AM 27.1960 49.7520 292° West 415 478 34,000  Level FlightAware
12:34AM 27.2220 49.6850 294° West 415 478 34,000  Level FlightAware
12:34AM 27.2470 49.6170 292° West 415 478 34,000  Level FlightAware
12:35AM 27.2730 49.5490 293° West 415 478 34,000  Level FlightAware
12:36AM 27.3050 49.4650 293° West 415 478 34,000  Level FlightAware
12:37AM 27.8920 49.4360 357° North 34,000  Level FlightAware
12:37AM 27.9060 49.4250 325° Northwest 462 532 34,000  Level FlightAware
12:38AM 27.9770 49.3670 324° Northwest 461 531 34,000  Level FlightAware
12:39AM 28.0570 49.3100 328° Northwest 462 532 34,000  Level FlightAware
12:39AM 28.1340 49.2560 328° Northwest 463 533 34,000  Level FlightAware
12:40AM 28.2090 49.2050 329° Northwest 463 533 34,000  Level FlightAware
12:41AM 28.2740 49.1590 328° Northwest 466 536 34,000  Level FlightAware
12:41AM 28.3590 49.1000 329° Northwest 468 539 34,000  Level FlightAware
12:43AM 28.5000 49.0010 328° Northwest 469 540 34,000  Level FlightAware
12:43AM 28.5710 48.9510 328° Northwest 470 541 34,000  Level FlightAware
12:44AM 28.6480 48.8980 329° Northwest 471 542 34,000  Level FlightAware
12:45AM 28.7290 48.8410 328° Northwest 467 537 34,000  Level FlightAware
12:46AM 28.8000 48.7910 328° Northwest 465 535 34,000  Level FlightAware
12:46AM 28.8740 48.7390 328° Northwest 464 534 34,000  Level FlightAware
12:47AM 28.9510 48.6840 328° Northwest 464 534 34,000  Level FlightAware
12:48AM 29.0480 48.6160 329° Northwest 464 534 34,000  Level FlightAware
12:49AM 29.1470 48.5460 328° Northwest 467 537 34,000  Level FlightAware
12:50AM 29.2260 48.4890 328° Northwest 467 537 34,000  Level FlightAware
12:50AM 29.3040 48.4340 328° Northwest 468 539 34,000  Level FlightAware
12:51AM 29.3840 48.3770 328° Northwest 468 539 34,000  Level FlightAware
12:52AM 29.4660 48.3190 328° Northwest 469 540 34,000  Level FlightAware
12:52AM 29.5410 48.2650 328° Northwest 470 541 34,000  Level FlightAware
12:53AM 29.6300 48.2010 328° Northwest 470 541 34,000  Level FlightAware
12:54AM 29.7000 48.1510 328° Northwest 472 543 34,000  Level FlightAware
12:54AM 29.7810 48.0920 328° Northwest 467 537 34,000  Level FlightAware
12:55AM 29.8590 48.0360 328° Northwest 464 534 34,000  Level FlightAware
12:56AM 29.9210 47.9910 328° Northwest 461 531 34,000  Level FlightAware
12:57AM 30.0330 47.9060 327° Northwest 459 528 34,000  Level FlightAware
12:57AM 30.0850 47.8590 322° Northwest 458 527 34,000  Level FlightAware
12:58AM 30.1490 47.7970 320° Northwest 458 527 34,000  Level FlightAware
12:59AM 30.2220 47.7280 321° Northwest 461 531 34,000  Level FlightAware
01:00AM 30.3330 47.6210 320° Northwest 465 535 34,000  Level FlightAware
01:01AM 30.4380 47.5200 320° Northwest 467 537 34,000  Level FlightAware
01:02AM 30.4940 47.4650 320° Northwest 467 537 34,000  Level FlightAware
01:03AM 30.6010 47.3620 320° Northwest 474 545 34,000  Level FlightAware
01:03AM 30.6600 47.3050 320° Northwest 474 545 34,000  Level FlightAware
01:04AM 30.7180 47.2490 320° Northwest 474 545 34,000  Level FlightAware
01:05AM 30.7750 47.1930 320° Northwest 474 545 34,000  Level FlightAware
01:05AM 30.8320 47.1370 320° Northwest 474 545 34,000  Level FlightAware
01:06AM 30.9030 47.0680 320° Northwest 474 545 34,000  Level FlightAware
01:07AM 30.9600 47.0120 320° Northwest 474 545 34,000  Level FlightAware
01:07AM 31.0170 46.9560 320° Northwest 474 545 34,000  Level FlightAware
01:08AM 31.0750 46.9000 320° Northwest 474 545 34,000  Level FlightAware
01:09AM 31.1460 46.8300 320° Northwest 474 545 34,000  Level FlightAware
01:10AM 31.2030 46.7740 320° Northwest 474 545 34,000  Level FlightAware
01:10AM 31.2600 46.7180 320° Northwest 474 545 34,000  Level FlightAware
01:11AM 31.3170 46.6620 320° Northwest 474 545 34,000  Level FlightAware
01:12AM 31.3740 46.6060 320° Northwest 474 545 34,000  Level FlightAware
01:12AM 31.4460 46.5350 320° Northwest 474 545 34,000  Level FlightAware
01:15AM 31.6174 46.3427 316° Northwest  Level Estimated
01:16AM 31.7009 46.2486 316° Northwest  Level Estimated
01:17AM 31.7843 46.1543 316° Northwest  Level Estimated
01:18AM 31.8677 46.0599 316° Northwest  Level Estimated
01:19AM 31.9510 45.9653 316° Northwest  Level Estimated
01:20AM 32.0342 45.8706 316° Northwest  Level Estimated
01:20AM 32.4870 45.4880 316° Northwest 500 575 34,000  Level FlightAware
01:21AM 32.1173 45.7756 316° Northwest  Level Estimated
01:21AM 32.5790 45.3940 319° Northwest 501 577 34,000  Level FlightAware
01:22AM 32.6440 45.3270 319° Northwest 503 579 34,000  Level FlightAware
01:23AM 32.7300 45.2390 319° Northwest 504 580 34,000  Level FlightAware
01:23AM 32.8010 45.1650 319° Northwest 505 581 34,000  Level FlightAware
01:24AM 32.8720 45.0920 319° Northwest 503 579 34,000  Level FlightAware
01:25AM 32.9500 45.0110 319° Northwest 500 575 34,000  Level FlightAware
01:25AM 33.0190 44.9390 319° Northwest 500 575 34,000  Level FlightAware
01:26AM 33.0950 44.8600 319° Northwest 499 574 34,000  Level FlightAware
01:27AM 33.1650 44.7870 319° Northwest 497 572 34,000  Level FlightAware
01:28AM 33.2420 44.7270 327° Northwest 495 570 34,000  Level FlightAware
01:28AM 33.3420 44.6860 341° North 491 565 34,000  Level FlightAware
01:29AM 33.4270 44.6560 344° North 491 565 34,000  Level FlightAware
01:30AM 33.5280 44.6180 343° North 491 565 34,000  Level FlightAware
01:30AM 33.6110 44.5790 339° North 491 565 34,000  Level FlightAware
01:31AM 33.6960 44.5370 338° Northwest 491 565 34,000  Level FlightAware
01:32AM 33.7890 44.4910 338° Northwest 491 565 34,000  Level FlightAware
01:32AM 33.8730 44.4500 338° Northwest 490 564 34,000  Level FlightAware
01:33AM 33.9640 44.4050 338° Northwest 489 563 34,000  Level FlightAware
01:34AM 34.0480 44.3630 337° Northwest 489 563 34,000  Level FlightAware
01:35AM 34.1360 44.3190 338° Northwest 487 560 34,000  Level FlightAware
01:35AM 34.2300 44.2730 338° Northwest 487 560 34,000  Level FlightAware
01:36AM 34.3130 44.2310 337° Northwest 486 559 34,000  Level FlightAware
01:37AM 34.3960 44.1900 338° Northwest 487 560 34,000  Level FlightAware
01:37AM 34.4920 44.1420 338° Northwest 488 562 34,000  Level FlightAware
01:38AM 34.5740 44.1000 337° Northwest 488 562 34,000  Level FlightAware
01:39AM 34.6670 44.0500 336° Northwest 488 562 34,000  Level FlightAware
01:39AM 34.7490 44.0070 337° Northwest 489 563 34,000  Level FlightAware
01:40AM 34.8320 43.9640 337° Northwest 489 563 34,000  Level FlightAware
01:41AM 34.9290 43.9130 337° Northwest 486 559 34,000  Level FlightAware
01:42AM 35.0100 43.8700 337° Northwest 484 557 34,000  Level FlightAware
01:42AM 35.1010 43.8220 337° Northwest 481 554 34,000  Level FlightAware
01:43AM 35.1820 43.7780 336° Northwest 482 555 34,000  Level FlightAware
01:44AM 35.2630 43.7350 337° Northwest 481 554 34,000  Level FlightAware
01:44AM 35.3570 43.6850 337° Northwest 482 555 34,000  Level FlightAware
01:45AM 35.4400 43.6410 337° Northwest 483 556 34,000  Level FlightAware
01:46AM 35.5310 43.5930 337° Northwest 483 556 34,000  Level FlightAware
01:46AM 35.6120 43.5490 336° Northwest 485 558 34,000  Level FlightAware
01:47AM 35.6940 43.5050 336° Northwest 486 559 34,000  Level FlightAware
01:48AM 35.7890 43.4540 336° Northwest 487 560 34,000  Level FlightAware
01:49AM 35.8690 43.4110 336° Northwest 486 559 34,000  Level FlightAware
01:49AM 35.9540 43.3650 336° Northwest 484 557 34,000  Level FlightAware
01:50AM 36.0440 43.3160 336° Northwest 485 558 34,000  Level FlightAware
01:51AM 36.1270 43.2710 336° Northwest 487 560 34,000  Level FlightAware
01:51AM 36.2220 43.2190 336° Northwest 485 558 34,000  Level FlightAware
01:52AM 36.3040 43.1740 336° Northwest 484 557 34,000  Level FlightAware
01:53AM 36.3930 43.1240 336° Northwest 483 556 34,000  Level FlightAware
01:53AM 36.4740 43.0790 336° Northwest 483 556 34,000  Level FlightAware
01:54AM 36.5690 43.0270 336° Northwest 483 556 34,000  Level FlightAware
01:55AM 36.6470 42.9830 336° Northwest 482 555 34,000  Level FlightAware
01:56AM 36.7400 42.9320 336° Northwest 483 556 34,000  Level FlightAware
01:56AM 36.8220 42.8860 336° Northwest 483 556 34,000  Level FlightAware
01:57AM 36.9040 42.8410 336° Northwest 482 555 34,000  Level FlightAware
01:58AM 36.9970 42.7900 336° Northwest 482 555 34,000  Level FlightAware
01:58AM 37.0800 42.7440 336° Northwest 482 555 34,000  Level FlightAware
01:59AM 37.1690 42.6940 336° Northwest 481 554 34,000  Level FlightAware
02:00AM 37.2490 42.6430 333° Northwest 478 550 34,000  Level FlightAware
02:00AM 37.3170 42.5730 321° Northwest 477 549 34,000  Level FlightAware
02:01AM 37.3910 42.4860 317° Northwest 479 551 34,000  Level FlightAware
02:02AM 37.4530 42.4140 317° Northwest 480 552 34,000  Level FlightAware
02:03AM 37.5280 42.3270 317° Northwest 481 554 34,000  Level FlightAware
02:03AM 37.5940 42.2510 318° Northwest 480 552 34,000  Level FlightAware
02:04AM 37.6580 42.1760 317° Northwest 479 551 34,000  Level FlightAware
02:05AM 37.7340 42.0880 318° Northwest 479 551 34,000  Level FlightAware
02:05AM 37.7990 42.0120 317° Northwest 480 552 34,000  Level FlightAware
02:06AM 37.8700 41.9290 317° Northwest 476 548 34,000  Level FlightAware
02:07AM 37.9320 41.8490 315° West 477 549 34,000  Level FlightAware
02:08AM 37.9990 41.7550 312° West 476 548 34,000  Level FlightAware
02:08AM 38.0560 41.6720 311° West 476 548 34,000  Level FlightAware
02:09AM 38.1150 41.5870 311° West 476 548 34,000  Level FlightAware
02:10AM 38.1680 41.5100 311° West 476 548 34,000  Level FlightAware
02:11AM 38.2530 41.3870 311° West 475 547 34,000  Level FlightAware
02:11AM 38.3020 41.3150 311° West 475 547 34,000  Level FlightAware
02:12AM 38.3510 41.2430 311° West 475 547 34,000  Level FlightAware
02:13AM 38.4000 41.1710 311° West 475 547 34,000  Level FlightAware
02:13AM 38.4490 41.0990 311° West 475 547 34,000  Level FlightAware
02:14AM 38.5100 41.0090 311° West 475 547 34,000  Level FlightAware
02:15AM 38.5590 40.9370 311° West 475 547 34,000  Level FlightAware
02:15AM 38.6080 40.8650 311° West 475 547 34,000  Level FlightAware
02:16AM 38.6570 40.7930 311° West 475 547 34,000  Level FlightAware
02:17AM 38.7060 40.7210 311° West 475 547 34,000  Level FlightAware
02:18AM 38.7670 40.6300 311° West 475 547 34,000  Level FlightAware
02:18AM 38.8160 40.5580 311° West 475 547 34,000  Level FlightAware
02:19AM 38.8650 40.4860 311° West 475 547 34,000  Level FlightAware
02:20AM 38.9140 40.4130 311° West 475 547 34,000  Level FlightAware
02:22AM 39.0610 40.1896 310° West  Level Estimated
02:23AM 39.1356 40.0756 310° West  Level Estimated
02:24AM 39.2101 39.9615 310° West  Level Estimated
02:25AM 39.2845 39.8470 310° West  Level Estimated
02:26AM 39.3587 39.7323 310° West  Level Estimated
02:27AM 39.4329 39.6174 310° West  Level Estimated
02:28AM 39.5069 39.5023 310° West  Level Estimated
02:29AM 39.5808 39.3868 310° West  Level Estimated
02:30AM 39.6547 39.2712 310° West  Level Estimated
02:31AM 39.7283 39.1553 310° West  Level Estimated
02:32AM 39.8019 39.0391 310° West  Level Estimated
02:33AM 39.8754 38.9227 309° West  Level Estimated
02:34AM 39.9487 38.8061 309° West  Level Estimated
02:35AM 40.0219 38.6892 309° West  Level Estimated
02:36AM 40.0951 38.5720 309° West  Level Estimated
02:37AM 40.1680 38.4546 309° West  Level Estimated
02:38AM 40.2409 38.3370 309° West  Level Estimated
02:39AM 40.3137 38.2191 309° West  Level Estimated
02:40AM 40.3863 38.1009 309° West  Level Estimated
02:41AM 40.4588 37.9825 309° West  Level Estimated
02:42AM 40.5312 37.8638 309° West  Level Estimated
02:43AM 40.6035 37.7449 309° West  Level Estimated
02:44AM 40.6756 37.6257 309° West  Level Estimated
02:45AM 40.7476 37.5063 309° West  Level Estimated
02:46AM 40.8195 37.3866 308° West  Level Estimated
02:47AM 40.8913 37.2666 308° West  Level Estimated
02:48AM 40.9630 37.1464 308° West  Level Estimated
02:49AM 41.0345 37.0259 308° West  Level Estimated
02:50AM 41.1059 36.9052 308° West  Level Estimated
02:51AM 41.1772 36.7841 308° West  Level Estimated
02:52AM 41.2483 36.6629 308° West  Level Estimated
02:53AM 41.3193 36.5413 308° West  Level Estimated
02:54AM 41.3902 36.4195 308° West  Level Estimated
02:55AM 41.4610 36.2975 308° West  Level Estimated
02:56AM 41.5316 36.1751 308° West  Level Estimated
02:57AM 41.6021 36.0525 308° West  Level Estimated
02:58AM 41.6725 35.9297 308° West  Level Estimated
02:59AM 41.7427 35.8065 307° West  Level Estimated
03:00AM 41.8128 35.6831 307° West  Level Estimated
03:01AM 41.8828 35.5594 307° West  Level Estimated
03:02AM 41.9527 35.4355 307° West  Level Estimated
03:03AM 42.0224 35.3113 307° West  Level Estimated
03:03AM 42.5970 34.3300 307° West 468 539 34,000  Level FlightAware
03:04AM 42.0920 35.1868 307° West  Level Estimated
03:04AM 42.6630 34.2440 316° Northwest 467 537 34,000  Level FlightAware
03:05AM 42.7340 34.1490 316° Northwest 466 536 34,000  Level FlightAware
03:05AM 42.7860 34.0610 309° West 462 532 34,000  Level FlightAware
03:06AM 42.8220 33.9530 294° West 462 532 34,000  Level FlightAware
03:07AM 42.8580 33.8350 293° West 463 533 34,000  Level FlightAware
03:07AM 42.8920 33.7240 293° West 464 534 34,000  Level FlightAware
03:08AM 42.9290 33.6020 293° West 464 534 34,000  Level FlightAware
03:09AM 42.9580 33.5090 293° West 464 534 34,000  Level FlightAware
03:10AM 42.9950 33.3860 292° West 463 533 34,000  Level FlightAware
03:10AM 43.0310 33.2650 292° West 463 533 34,000  Level FlightAware
03:11AM 43.0600 33.1690 292° West 463 533 34,000  Level FlightAware
03:12AM 43.0990 33.0370 292° West 458 527 34,000  Level FlightAware
03:12AM 43.1310 32.9280 292° West 457 526 34,000  Level FlightAware
03:13AM 43.1600 32.8190 290° West 456 525 34,000  Level FlightAware
03:14AM 43.1920 32.6960 290° West 458 527 34,000  Level FlightAware
03:14AM 43.2200 32.5900 290° West 459 528 34,000  Level FlightAware
03:15AM 43.2530 32.4670 290° West 460 529 34,000  Level FlightAware
03:16AM 43.2820 32.3580 290° West 460 529 34,000  Level FlightAware
03:17AM 43.3140 32.2480 292° West 460 529 34,000  Level FlightAware
03:17AM 43.3520 32.1270 293° West 460 529 34,000  Level FlightAware
03:18AM 43.3850 32.0180 293° West 460 529 34,000  Level FlightAware
03:19AM 43.4170 31.9140 293° West 461 531 34,000  Level FlightAware
03:19AM 43.4550 31.7900 293° West 459 528 34,000  Level FlightAware
03:20AM 43.4850 31.6880 292° West 459 528 34,000  Level FlightAware
03:21AM 43.5270 31.5350 291° West 459 528 34,000  Level FlightAware
03:22AM 43.5540 31.4360 291° West 458 527 34,000  Level FlightAware
03:22AM 43.5860 31.3230 291° West 457 526 34,000  Level FlightAware
03:23AM 43.6190 31.2010 291° West 456 525 34,000  Level FlightAware
03:24AM 43.6600 31.0490 290° West 457 526 34,000  Level FlightAware
03:25AM 43.6860 30.9550 291° West 454 522 34,000  Level FlightAware
03:25AM 43.7250 30.8080 290° West 455 524 34,000  Level FlightAware
03:26AM 43.7530 30.6990 290° West 456 525 34,000  Level FlightAware
03:27AM 43.7860 30.5730 290° West 458 527 34,000  Level FlightAware
03:28AM 43.8270 30.4720 299° West 456 525 34,000  Level FlightAware
03:28AM 43.8750 30.3870 308° West 456 525 34,000  Level FlightAware
03:29AM 43.9270 30.2950 308° West 455 524 34,000  Level FlightAware
03:30AM 43.9860 30.1910 308° West 454 522 34,000  Level FlightAware
03:30AM 44.0410 30.0930 308° West 454 522 34,000  Level FlightAware
03:31AM 44.0860 30.0110 307° West 454 522 34,000  Level FlightAware
03:32AM 44.1480 29.9010 308° West 454 522 34,000  Level FlightAware
03:33AM 44.2220 29.7670 308° West 454 522 34,000  Level FlightAware
03:33AM 44.2760 29.6700 308° West 452 520 34,000  Level FlightAware
03:34AM 44.3290 29.5730 307° West 452 520 34,000  Level FlightAware
03:35AM 44.3810 29.4780 307° West 451 519 34,000  Level FlightAware
03:35AM 44.4340 29.3810 307° West 450 518 34,000  Level FlightAware
03:36AM 44.4860 29.2860 308° West 448 516 34,000  Level FlightAware
03:37AM 44.5410 29.1850 307° West 446 513 34,000  Level FlightAware
03:37AM 44.5850 29.1040 307° West 446 513 34,000  Level FlightAware
03:38AM 44.6460 28.9910 307° West 447 514 34,000  Level FlightAware
03:39AM 44.6980 28.8940 307° West 447 514 34,000  Level FlightAware
03:40AM 44.7450 28.8070 307° West 447 514 34,000  Level FlightAware
03:40AM 44.7890 28.7230 306° West 448 516 34,000  Level FlightAware
03:41AM 44.8490 28.6110 307° West 449 517 34,000  Level FlightAware
03:42AM 44.9070 28.5010 307° West 449 517 34,000  Level FlightAware
03:42AM 44.9480 28.4250 307° West 448 516 34,000  Level FlightAware
03:43AM 45.0140 28.2990 307° West 448 516 34,000  Level FlightAware
03:44AM 45.0620 28.2080 307° West 449 517 34,000  Level FlightAware
03:45AM 45.1120 28.1110 306° West 449 517 34,000  Level FlightAware
03:45AM 45.1620 28.0160 307° West 449 517 34,000  Level FlightAware
03:46AM 45.2080 27.9280 307° West 450 518 34,000  Level FlightAware
03:47AM 45.2690 27.8090 306° West 451 519 34,000  Level FlightAware
03:47AM 45.3210 27.7090 307° West 450 518 34,000  Level FlightAware
03:48AM 45.3640 27.6260 306° West 450 518 34,000  Level FlightAware
03:49AM 45.4250 27.5070 306° West 450 518 34,000  Level FlightAware
03:49AM 45.4630 27.4320 306° West 449 517 34,000 900 Level FlightAware
03:50AM 45.5280 27.3050 306° West 449 517 35,300 1,320 Climbing FlightAware
03:51AM 45.5660 27.2290 306° West 448 516 36,000 480 Climbing FlightAware
03:52AM 45.6260 27.1100 306° West 447 514 36,000  Level FlightAware
03:52AM 45.6910 26.9810 306° West 445 512 36,000  Level FlightAware
03:53AM 45.7400 26.8830 306° West 445 512 36,000  Level FlightAware
03:54AM 45.7890 26.7870 306° West 445 512 36,000  Level FlightAware
03:54AM 45.8370 26.6900 305° West 444 511 36,000  Level FlightAware
03:55AM 45.8910 26.5810 305° West 443 510 36,000  Level FlightAware
03:56AM 45.9590 26.4420 305° West 443 510 36,000  Level FlightAware
03:57AM 46.0110 26.3370 306° West 442 509 36,000  Level FlightAware
03:58AM 46.0580 26.2400 305° West 444 511 36,000  Level FlightAware
03:58AM 46.1050 26.1440 305° West 443 510 36,000  Level FlightAware
03:59AM 46.1590 26.0340 305° West 443 510 36,000  Level FlightAware
04:00AM 46.2120 25.9240 305° West 443 510 36,000  Level FlightAware
04:00AM 46.2550 25.8360 305° West 444 511 36,000  Level FlightAware
04:01AM 46.3040 25.7340 305° West 444 511 36,000  Level FlightAware
04:02AM 46.3510 25.6360 305° West 444 511 36,000  Level FlightAware
04:03AM 46.4080 25.5170 305° West 442 509 36,000  Level FlightAware
04:03AM 46.4540 25.4200 305° West 444 511 36,000  Level FlightAware
04:04AM 46.5080 25.3060 305° West 444 511 36,000  Level FlightAware
04:05AM 46.5480 25.2200 304° West 445 512 36,000  Level FlightAware
04:05AM 46.6070 25.0950 305° West 446 513 36,000  Level FlightAware
04:06AM 46.6540 24.9950 304° West 446 513 36,000  Level FlightAware
04:07AM 46.7130 24.8680 304° West 446 513 36,000  Level FlightAware
04:08AM 46.7980 24.6860 304° West 447 514 36,000  Level FlightAware
04:09AM 46.8500 24.5730 304° West 446 513 36,000  Level FlightAware
04:09AM 46.8900 24.4850 304° West 446 513 36,000  Level FlightAware
04:10AM 46.9410 24.3740 304° West 446 513 36,000  Level FlightAware
04:11AM 46.9950 24.2550 304° West 445 512 36,000  Level FlightAware
04:12AM 47.0400 24.1550 303° West 445 512 36,000  Level FlightAware
04:12AM 47.0920 24.0410 304° West 447 514 36,000  Level FlightAware
04:13AM 47.1390 23.9380 304° West 447 514 36,000  Level FlightAware
04:14AM 47.1790 23.8480 303° West 446 513 36,000  Level FlightAware
04:14AM 47.2370 23.7180 303° West 447 514 36,000  Level FlightAware
04:15AM 47.2830 23.6160 304° West 450 518 36,000  Level FlightAware
04:16AM 47.3350 23.4990 303° West 452 520 36,000  Level FlightAware
04:17AM 47.3810 23.3950 303° West 454 522 36,000  Level FlightAware
04:17AM 47.4330 23.2780 303° West 456 525 36,000  Level FlightAware
04:18AM 47.4790 23.1710 302° West 455 524 36,000  Level FlightAware
04:19AM 47.5230 23.0640 301° West 458 527 36,000  Level FlightAware
04:19AM 47.5690 22.9420 299° West 460 529 36,000  Level FlightAware
04:20AM 47.6120 22.8310 300° West 463 533 36,000  Level FlightAware
04:21AM 47.6600 22.7080 300° West 461 531 36,000  Level FlightAware
04:21AM 47.7030 22.5980 300° West 460 529 36,000  Level FlightAware
04:22AM 47.7450 22.4890 300° West 462 532 36,000  Level FlightAware
04:23AM 47.7930 22.3640 300° West 461 531 36,000  Level FlightAware
04:23AM 47.8290 22.2680 299° West 460 529 36,000  Level FlightAware
04:24AM 47.8750 22.1470 300° West 461 531 36,000  Level FlightAware
04:25AM 47.9140 22.0430 299° West 462 532 36,000  Level FlightAware
04:26AM 47.9670 21.9030 300° West 464 534 36,000  Level FlightAware
04:26AM 48.0150 21.7750 299° West 465 535 36,000  Level FlightAware
04:27AM 48.0560 21.6630 299° West 465 535 36,000  Level FlightAware
04:28AM 48.0980 21.5510 299° West 467 537 36,000  Level FlightAware
04:28AM 48.1440 21.4260 299° West 467 537 36,000  Level FlightAware
04:29AM 48.1850 21.3160 299° West 467 537 36,000  Level FlightAware
04:30AM 48.2340 21.1820 299° West 468 539 36,000  Level FlightAware
04:31AM 48.2760 21.0670 299° West 468 539 36,000  Level FlightAware
04:31AM 48.3170 20.9540 299° West 470 541 36,000  Level FlightAware
04:32AM 48.3620 20.8280 298° West 469 540 36,000  Level FlightAware
04:33AM 48.3980 20.7280 298° West 467 537 36,000  Level FlightAware
04:33AM 48.4430 20.6010 298° West 465 535 36,000  Level FlightAware
04:34AM 48.4880 20.4690 297° West 465 535 36,000  Level FlightAware
04:35AM 48.5280 20.3530 298° West 468 539 36,000  Level FlightAware
04:35AM 48.5710 20.2270 297° West 468 539 36,000  Level FlightAware
04:36AM 48.6100 20.1120 297° West 468 539 36,000  Level FlightAware
04:37AM 48.6500 19.9950 297° West 471 542 36,000  Level FlightAware
04:38AM 48.6960 19.8590 297° West 470 541 36,000  Level FlightAware
04:38AM 48.7320 19.7510 297° West 468 539 36,000  Level FlightAware
04:39AM 48.7730 19.6280 297° West 466 536 36,000  Level FlightAware
04:40AM 48.8150 19.5010 297° West 468 539 36,000  Level FlightAware
04:40AM 48.8550 19.3820 297° West 469 540 36,000  Level FlightAware
04:41AM 48.8990 19.2480 297° West 471 542 36,000  Level FlightAware
04:42AM 48.9380 19.1270 296° West 473 544 36,000  Level FlightAware
04:42AM 48.9810 18.9950 296° West 468 539 36,000  Level FlightAware
04:43AM 49.0190 18.8780 296° West 467 537 36,000  Level FlightAware
04:44AM 49.0570 18.7590 296° West 467 537 36,000  Level FlightAware
04:45AM 49.1000 18.6250 296° West 467 537 36,000  Level FlightAware
04:45AM 49.1380 18.5060 296° West 469 540 36,000  Level FlightAware
04:46AM 49.1760 18.3880 296° West 470 541 36,000  Level FlightAware
04:47AM 49.2180 18.2560 296° West 471 542 36,000  Level FlightAware
04:47AM 49.2550 18.1390 296° West 474 545 36,000  Level FlightAware
04:48AM 49.3030 17.9980 298° West 478 550 36,000  Level FlightAware
04:49AM 49.3440 17.8750 297° West 479 551 36,000  Level FlightAware
04:49AM 49.3850 17.7550 298° West 480 552 36,000  Level FlightAware
04:50AM 49.4290 17.6200 297° West 480 552 36,000  Level FlightAware
04:51AM 49.4670 17.4970 295° West 477 549 36,000  Level FlightAware
04:52AM 49.4970 17.3490 287° West 476 548 36,000  Level FlightAware
04:52AM 49.5210 17.2220 286° West 476 548 36,000  Level FlightAware
04:53AM 49.5480 17.0760 286° West 475 547 36,000  Level FlightAware
04:54AM 49.5700 16.9520 285° West 475 547 36,000  Level FlightAware
04:54AM 49.5940 16.8200 286° West 473 544 36,000  Level FlightAware
04:55AM 49.6200 16.6740 285° West 471 542 36,000  Level FlightAware
04:56AM 49.6440 16.5380 285° West 471 542 36,000  Level FlightAware
04:56AM 49.6680 16.3970 285° West 469 540 36,000  Level FlightAware
04:57AM 49.6910 16.2670 285° West 469 540 36,000  Level FlightAware
04:58AM 49.7130 16.1370 285° West 469 540 36,000  Level FlightAware
04:59AM 49.7390 15.9880 285° West 467 537 36,000  Level FlightAware
04:59AM 49.7610 15.8590 285° West 468 539 36,000  Level FlightAware
05:00AM 49.7820 15.7340 285° West 467 537 36,000  Level FlightAware
05:01AM 49.8130 15.5460 284° West 466 536 36,000  Level FlightAware
05:02AM 49.8340 15.4190 284° West 465 535 36,000  Level FlightAware
05:02AM 49.8570 15.2820 285° West 467 537 36,000  Level FlightAware
05:03AM 49.8810 15.1360 284° West 468 539 36,000  Level FlightAware
05:04AM 49.9040 14.9900 284° West 471 542 36,000  Level FlightAware
05:04AM 49.9240 14.8650 284° West 473 544 36,000  Level FlightAware
05:05AM 49.9450 14.7320 284° West 473 544 36,000  Level FlightAware
05:06AM 49.9690 14.5830 284° West 475 547 36,000  Level FlightAware
05:06AM 49.9900 14.4480 284° West 476 548 36,000  Level FlightAware
05:07AM 50.0140 14.2950 284° West 475 547 36,000  Level FlightAware
05:08AM 50.0330 14.1670 283° West 475 547 36,000  Level FlightAware
05:09AM 50.0620 13.9800 284° West 473 544 36,000  Level FlightAware
05:10AM 50.0830 13.8370 283° West 470 541 36,000  Level FlightAware
05:10AM 50.1030 13.7020 283° West 466 536 36,000  Level FlightAware
05:11AM 50.1210 13.5810 283° West 464 534 36,000  Level FlightAware
05:12AM 50.1430 13.4340 283° West 464 534 36,000  Level FlightAware
05:12AM 50.1630 13.2970 283° West 466 536 36,000  Level FlightAware
05:13AM 50.1870 13.1590 285° West 466 536 36,000  Level FlightAware
05:14AM 50.2140 13.0610 293° West 468 539 36,000  Level FlightAware
05:14AM 50.2650 12.9150 299° West 469 540 36,000  Level FlightAware
05:15AM 50.3130 12.7740 298° West 469 540 36,000  Level FlightAware
05:16AM 50.3540 12.6570 299° West 470 541 36,000  Level FlightAware
05:17AM 50.4000 12.5210 298° West 474 545 36,000  Level FlightAware
05:17AM 50.4410 12.3980 298° West 476 548 36,000  Level FlightAware
05:18AM 50.4760 12.2940 298° West 477 549 36,000  Level FlightAware
05:19AM 50.5250 12.1430 297° West 478 550 36,000  Level FlightAware
05:19AM 50.5670 12.0160 298° West 477 549 36,000  Level FlightAware
05:20AM 50.6120 11.8790 297° West 476 548 36,000  Level FlightAware
05:21AM 50.6510 11.7580 297° West 476 548 36,000  Level FlightAware
05:21AM 50.6890 11.6380 297° West 477 549 36,000  Level FlightAware
05:22AM 50.7320 11.5040 297° West 478 550 36,000  Level FlightAware
05:23AM 50.7770 11.3630 297° West 475 547 36,000  Level FlightAware
05:24AM 50.8190 11.2340 297° West 473 544 36,000  Level FlightAware
05:24AM 50.8590 11.1060 296° West 470 541 36,000  Level FlightAware
05:25AM 50.8970 10.9840 296° West 470 541 36,000  Level FlightAware
05:26AM 50.9420 10.8400 296° West 471 542 36,000  Level FlightAware
05:26AM 50.9810 10.7150 296° West 472 543 36,000  Level FlightAware
05:27AM 51.0160 10.6030 296° West 473 544 36,000  Level FlightAware
05:28AM 51.0610 10.4560 296° West 471 542 36,000  Level FlightAware
05:28AM 51.0990 10.3300 296° West 471 542 36,000  Level FlightAware
05:29AM 51.1380 10.2030 296° West 471 542 36,000  Level FlightAware
05:30AM 51.1770 10.0730 296° West 468 539 36,000  Level FlightAware
05:30AM 51.2140 9.9460 295° West 470 541 36,000  Level FlightAware
05:31AM 51.2550 9.8020 295° West 469 540 36,000  Level FlightAware
05:32AM 51.2910 9.6780 295° West 469 540 36,000  Level FlightAware
05:33AM 51.3330 9.5300 294° West 470 541 36,000  Level FlightAware
05:33AM 51.3700 9.4020 295° West 472 543 36,000  Level FlightAware
05:34AM 51.4050 9.2790 295° West 473 544 36,000  Level FlightAware
05:34AM 51.4310 9.1850 294° West 473 544 36,000  Level FlightAware
05:35AM 51.4670 9.0570 294° West 474 545 36,000  Level FlightAware
05:36AM 51.5080 8.9110 294° West 474 545 36,000  Level FlightAware
05:37AM 51.5430 8.7820 294° West 474 545 36,000  Level FlightAware
05:37AM 51.5830 8.6390 294° West 475 547 36,000  Level FlightAware
05:38AM 51.6180 8.5110 294° West 475 547 36,000  Level FlightAware
05:39AM 51.6580 8.3660 294° West 474 545 36,000  Level FlightAware
05:39AM 51.6840 8.2700 294° West 475 547 36,000  Level FlightAware
05:40AM 51.7310 8.0940 293° West 471 542 36,000  Level FlightAware
05:41AM 51.7650 7.9680 294° West 475 547 36,000  Level FlightAware
05:41AM 51.8010 7.8330 293° West 474 545 36,000  Level FlightAware
05:42AM 51.8410 7.6800 293° West 474 545 36,000  Level FlightAware
05:43AM 51.8750 7.5520 293° West 475 547 36,000  Level FlightAware
05:44AM 51.9060 7.4330 293° West 475 547 36,000  Level FlightAware
05:44AM 51.9470 7.2730 293° West 477 549 36,000  Level FlightAware
05:45AM 51.9810 7.1400 293° West 477 549 36,000  Level FlightAware
05:46AM 52.0190 6.9930 293° West 477 549 36,000  Level FlightAware
05:46AM 52.0530 6.8620 293° West 478 550 36,000  Level FlightAware
05:47AM 52.0880 6.7230 292° West 478 550 36,000  Level FlightAware
05:48AM 52.1290 6.5590 292° West 480 552 36,000  Level FlightAware
05:48AM 52.1580 6.4440 292° West 480 552 36,000  Level FlightAware
05:49AM 52.1950 6.2960 292° West 480 552 36,000  Level FlightAware
05:50AM 52.2270 6.1640 292° West 480 552 36,000  Level FlightAware
05:51AM 52.2600 6.0290 292° West 480 552 36,000  Level FlightAware
05:51AM 52.2970 5.8770 292° West 480 552 36,000  Level FlightAware
05:52AM 52.3300 5.7440 292° West 481 554 36,000 -1,200 Level FlightAware
05:53AM 52.3568 5.5988 292° West 476 548 34,500  Descending FlightAware UK
05:53AM 52.3670 5.5880 292° West 481 554 36,000  Climbing FlightAware
05:53AM 52.3988 5.4614 292° West 476 548 34,500  Descending FlightAware UK
05:53AM 52.3980 5.4580 292° West 480 552 36,000  Climbing FlightAware
05:54AM 52.4300 5.3178 292° West 474 545 34,500  Descending FlightAware UK
05:54AM 52.4320 5.3170 292° West 482 555 36,000  Climbing FlightAware
05:54AM 52.4407 5.2545 292° West 476 548 34,500 -2,760 Descending FlightAware UK
05:55AM 52.4584 5.1952 296° West 476 548 34,500 3,600 Level FlightAware UK
05:55AM 52.4640 5.1820 296° West 482 555 36,000  Climbing FlightAware
05:55AM 52.4799 5.1149 296° West 476 548 34,500 -2,220 Descending FlightAware UK
05:55AM 52.4962 5.0316 288° West 476 548 34,500 3,180 Level FlightAware UK
05:55AM 52.4970 5.0410 288° West 481 554 36,000 1,800 Climbing FlightAware
05:56AM 52.5350 4.8740 291° West 481 554 36,000  Level FlightAware
05:57AM 52.5640 4.7350 289° West 482 555 36,000 -1,560 Level FlightAware
05:57AM 52.5799 4.6617 289° West 476 548 34,500 -2,460 Descending FlightAware UK
05:57AM 52.5929 4.5993 289° West 476 548 34,500 4,260 Level FlightAware UK
05:58AM 52.5930 4.5970 289° West 482 555 36,000 1,860 Climbing FlightAware
05:58AM 52.6230 4.4460 288° West 483 556 36,000 -1,440 Level FlightAware
05:59AM 52.6389 4.3705 288° West 476 548 34,500  Descending FlightAware UK
05:59AM 52.6500 4.3100 288° West 482 555 36,000 1,440 Climbing FlightAware
06:00AM 52.6780 4.1700 288° West 482 555 36,000 -1,500 Level FlightAware
06:00AM 52.6964 4.0775 288° West 476 548 34,500  Descending FlightAware UK
06:00AM 52.7090 4.0110 288° West 481 554 36,000  Climbing FlightAware
06:01AM 52.7255 3.9313 288° West 476 548 34,500  Descending FlightAware UK
06:01AM 52.7370 3.8670 288° West 479 551 36,000  Climbing FlightAware
06:01AM 52.7497 3.8061 288° West 478 550 34,500 -2,760 Descending FlightAware UK
06:02AM 52.7624 3.7438 289° West 474 545 34,500 3,000 Level FlightAware UK
06:02AM 52.7700 3.7150 289° West 479 551 36,000  Climbing FlightAware
06:02AM 52.7937 3.6228 289° West 474 545 34,500  Descending FlightAware UK
06:02AM 52.8050 3.5790 289° West 480 552 36,000  Climbing FlightAware
06:03AM 52.8251 3.5024 289° West 474 545 34,500  Descending FlightAware UK
06:03AM 52.8400 3.4440 289° West 481 554 36,000  Climbing FlightAware
06:03AM 52.8580 3.3588 289° West 472 543 34,500  Descending FlightAware UK
06:04AM 52.8690 3.2830 289° West 481 554 36,000  Climbing FlightAware
06:04AM 52.8829 3.1876 289° West 476 548 34,500  Descending FlightAware UK
06:05AM 52.8900 3.1390 289° West 481 554 36,000 1,620 Climbing FlightAware
06:05AM 52.9090 2.9990 283° West 482 555 36,000 -1,200 Level FlightAware
06:06AM 52.9275 2.8653 283° West 474 545 34,500  Descending FlightAware UK
06:06AM 52.9320 2.8330 283° West 483 556 36,000  Climbing FlightAware
06:06AM 52.9418 2.7573 283° West 472 543 34,500  Descending FlightAware UK
06:07AM 52.9500 2.6960 283° West 483 556 36,000 1,380 Climbing FlightAware
06:07AM 52.9720 2.5290 282° West 484 557 36,000  Level FlightAware
06:08AM 52.9898 2.3949 282° West 484 557 36,000 -1,680 Level FlightAware ADS-B
06:08AM 52.9990 2.3243 282° West 472 543 34,500  Descending FlightAware UK
06:09AM 53.0068 2.2639 282° West 484 557 36,000  Climbing FlightAware ADS-B
06:09AM 53.0185 2.1722 282° West 480 552 34,500  Descending FlightAware UK
06:09AM 53.0223 2.1435 282° West 484 557 36,000  Climbing FlightAware ADS-B
06:09AM 53.0296 2.0859 282° West 482 555 34,500  Descending FlightAware UK
06:10AM 53.0370 2.0281 282° West 479 551 36,000  Climbing FlightAware ADS-B
06:10AM 53.0488 1.9344 282° West 474 545 34,500  Descending FlightAware UK
06:10AM 53.0546 1.8885 282° West 480 552 36,000  Climbing FlightAware ADS-B
06:11AM 53.0623 1.8272 282° West 472 543 34,500  Descending FlightAware UK
06:11AM 53.0687 1.7759 282° West 482 555 36,000  Climbing FlightAware ADS-B
06:11AM 53.0783 1.6974 282° West 476 548 34,500  Descending FlightAware UK
06:11AM 53.0853 1.6426 282° West 483 556 36,000  Climbing FlightAware ADS-B
06:12AM 53.0972 1.5453 282° West 484 557 34,500  Descending FlightAware UK
06:12AM 53.0994 1.5285 282° West 480 552 36,000 2,460 Climbing FlightAware ADS-B
06:12AM 53.1127 1.4197 282° West 474 545 36,000 -1,860 Level FlightAware ADS-B
06:13AM 53.1208 1.3531 282° West 480 552 34,500  Descending FlightAware UK
06:13AM 53.1262 1.3088 282° West 472 543 36,000 2,040 Climbing FlightAware ADS-B
06:14AM 53.1387 1.2041 281° West 469 540 36,000 -1,740 Level FlightAware ADS-B
06:14AM 53.1486 1.1205 281° West 478 550 34,500  Descending FlightAware UK
06:14AM 53.1523 1.0899 281° West 468 539 36,000  Climbing FlightAware ADS-B
06:14AM 53.1587 1.0358 281° West 474 545 34,500  Descending FlightAware UK
06:15AM 53.1653 0.9793 281° West 468 539 36,000  Climbing FlightAware ADS-B
06:15AM 53.1734 0.9096 281° West 474 545 34,500  Descending FlightAware UK
06:15AM 53.1856 0.8047 281° West 470 541 36,000  Climbing FlightAware ADS-B
06:16AM 53.1933 0.7401 281° West 474 545 34,500  Descending FlightAware UK
06:16AM 53.1984 0.6948 281° West 470 541 36,000 2,040 Climbing FlightAware ADS-B
06:16AM 53.2108 0.5874 281° West 472 543 36,000  Level FlightAware ADS-B
06:17AM 53.2241 0.4705 281° West 472 543 36,000 -1,740 Level FlightAware ADS-B
06:17AM 53.2321 0.3988 281° West 476 548 34,500  Descending FlightAware UK
06:17AM 53.2373 0.3529 281° West 471 542 36,000 1,980 Climbing FlightAware ADS-B
06:18AM 53.2497 0.2422 281° West 473 544 36,000  Level FlightAware ADS-B
06:19AM 53.2625 0.1259 280° West 474 545 36,000  Level FlightAware ADS-B
06:19AM 53.2744 0.0178 280° West 473 544 36,000 -1,860 Level FlightAware ADS-B
06:19AM 53.2817 -0.0507 280° West 478 550 34,500  Descending FlightAware UK
06:20AM 53.2861 -0.0915 280° West 470 541 36,000  Climbing FlightAware ADS-B
06:20AM 53.2932 -0.1578 280° West 476 548 34,500  Descending FlightAware UK
06:20AM 53.2983 -0.2054 280° West 469 540 36,000  Climbing FlightAware ADS-B
06:20AM 53.3069 -0.2855 280° West 476 548 34,500  Descending FlightAware UK
06:21AM 53.3101 -0.3148 280° West 468 539 36,000  Climbing FlightAware ADS-B
06:21AM 53.3183 -0.3910 280° West 474 545 34,500  Descending FlightAware UK
06:21AM 53.3221 -0.4285 280° West 468 539 36,000 2,100 Climbing FlightAware ADS-B
06:22AM 53.3336 -0.5381 280° West 469 540 36,000 -1,800 Level FlightAware ADS-B
06:22AM 53.3404 -0.6047 280° West 478 550 34,500  Descending FlightAware UK
06:22AM 53.3468 -0.6658 280° West 471 542 36,000  Climbing FlightAware ADS-B
06:23AM 53.3559 -0.7540 280° West 484 557 34,500  Descending FlightAware UK
06:23AM 53.3644 -0.8391 280° West 470 541 36,000  Climbing FlightAware ADS-B
06:24AM 53.3774 -0.9681 280° West 484 557 34,500  Descending FlightAware UK
06:24AM 53.3818 -1.0115 280° West 470 541 36,000 1,860 Climbing FlightAware ADS-B
06:24AM 53.3942 -1.1364 279° West 465 535 36,000  Level FlightAware ADS-B
06:25AM 53.4054 -1.2508 279° West 463 533 36,000  Level FlightAware ADS-B
06:26AM 53.4160 -1.3640 279° West 461 531 36,000 -1,800 Level FlightAware
06:26AM 53.4231 -1.4339 279° West 482 555 34,500  Descending FlightAware UK
06:26AM 53.4317 -1.5232 279° West 462 532 36,000  Climbing FlightAware ADS-B
06:27AM 53.4371 -1.5808 279° West 480 552 34,500  Descending FlightAware UK
06:27AM 53.4450 -1.6580 279° West 460 529 36,000  Climbing FlightAware
06:27AM 53.4511 -1.7278 279° West 478 550 34,500  Descending FlightAware UK
06:27AM 53.4560 -1.7808 279° West 461 531 36,000  Climbing FlightAware ADS-B
06:28AM 53.4648 -1.8757 279° West 478 550 34,500  Descending FlightAware UK
06:28AM 53.4671 -1.9004 279° West 463 533 36,000 2,160 Climbing FlightAware ADS-B
06:29AM 53.4780 -2.0203 279° West 464 534 36,000 -1,560 Level FlightAware ADS-B
06:29AM 53.4862 -2.1100 279° West 482 555 34,500  Descending FlightAware UK
06:29AM 53.4883 -2.1340 279° West 464 534 36,000  Climbing FlightAware ADS-B
06:30AM 53.4956 -2.2161 279° West 482 555 34,500  Descending FlightAware UK
06:30AM 53.4980 -2.2420 279° West 464 534 36,000  Climbing FlightAware
06:30AM 53.5071 -2.3430 279° West 478 550 34,500  Descending FlightAware UK
06:30AM 53.5120 -2.3990 279° West 462 532 36,000  Climbing FlightAware
06:31AM 53.5181 -2.4708 279° West 480 552 34,500  Descending FlightAware UK
06:31AM 53.5240 -2.5410 279° West 462 532 36,000  Climbing FlightAware
06:31AM 53.5310 -2.6197 279° West 478 550 34,500  Descending FlightAware UK
06:32AM 53.5327 -2.6392 279° West 464 534 36,000  Climbing FlightAware ADS-B
06:32AM 53.5383 -2.7049 279° West 478 550 34,500  Descending FlightAware UK
06:32AM 53.5435 -2.7661 279° West 466 536 36,000 1,800 Climbing FlightAware ADS-B
06:33AM 53.5529 -2.8792 278° West 468 539 36,000 -2,400 Level FlightAware ADS-B
06:33AM 53.5581 -2.9403 278° West 488 562 34,100 -1,980 Descending FlightAware UK
06:33AM 53.5620 -2.9890 278° West 478 550 34,900 -2,760 Climbing FlightAware
06:34AM 53.5725 -3.1156 278° West 488 562 31,900 -2,400 Descending FlightAware UK
06:34AM 53.5750 -3.1470 278° West 471 542 33,100 -2,640 Climbing FlightAware
06:34AM 53.5813 -3.2241 278° West 476 548 30,600 -2,400 Descending FlightAware UK
06:35AM 53.5860 -3.2880 278° West 464 534 31,500 -2,160 Climbing FlightAware
06:35AM 53.5930 -3.3732 278° West 470 541 29,100 -2,400 Descending FlightAware UK
06:35AM 53.6040 -3.4560 278° West 451 519 29,700 -660 Climbing FlightAware
06:36AM 53.6220 -3.5890 283° West 439 505 28,400 -3,420 Descending FlightAware
06:37AM 53.6358 -3.6954 283° West 444 511 25,800 -1,980 Descending FlightAware UK
06:37AM 53.6390 -3.7180 283° West 428 493 27,100 -2,040 Climbing FlightAware
06:37AM 53.6517 -3.8112 283° West 434 499 24,600 -1,920 Descending FlightAware UK
06:37AM 53.6590 -3.8610 283° West 415 478 25,700 -120 Climbing FlightAware
06:38AM 53.6760 -3.9840 283° West 405 466 24,500 -3,720 Descending FlightAware
06:38AM 53.6859 -4.0517 283° West 416 479 22,200 -1,980 Descending FlightAware UK
06:39AM 53.6940 -4.1080 283° West 401 461 23,200 -1,800 Climbing FlightAware
06:39AM 53.6962 -4.1248 283° West 414 476 21,500 -4,200 Descending FlightAware UK
06:40AM 53.7108 -4.2525 283° West 412 474 20,200 360 Descending FlightAware UK
06:40AM 53.7100 -4.2440 283° West 396 456 21,800 -1,380 Climbing FlightAware
06:40AM 53.7133 -4.3075 283° West 408 470 19,800 -3,840 Descending FlightAware UK
06:40AM 53.7117 -4.3979 268° West 404 465 18,900 -1,920 Descending FlightAware UK
06:41AM 53.7106 -4.4512 268° West 398 458 18,300 -2,040 Descending FlightAware UK
06:41AM 53.7090 -4.5219 268° West 394 453 17,500 1,140 Descending FlightAware UK
06:41AM 53.7090 -4.5340 268° West 374 430 18,900 -1,800 Climbing FlightAware
06:41AM 53.7074 -4.5916 268° West 390 449 16,800 -4,680 Descending FlightAware UK
06:42AM 53.7058 -4.6429 267° West 388 447 16,200 1,680 Descending FlightAware UK
06:42AM 53.7050 -4.6610 267° West 367 422 17,600 -1,800 Climbing FlightAware
06:42AM 53.7035 -4.7281 267° West 382 440 15,300 -4,620 Descending FlightAware UK
06:43AM 53.7021 -4.7788 267° West 378 435 14,700 3,000 Descending FlightAware UK
06:43AM 53.7020 -4.7740 267° West 361 415 16,300 -1,680 Climbing FlightAware
06:43AM 53.7007 -4.8293 267° West 374 430 14,200 -4,260 Descending FlightAware UK
06:43AM 53.6992 -4.8787 267° West 364 419 13,900 2,220 Descending FlightAware UK
06:43AM 53.6990 -4.9010 267° West 342 394 15,300 -1,500 Climbing FlightAware
06:44AM 53.6966 -4.9725 267° West 352 405 13,000 -1,500 Descending FlightAware UK
06:44AM 53.6960 -5.0070 267° West 334 384 14,300 -1,380 Climbing FlightAware
06:44AM 53.6938 -5.0655 267° West 342 394 12,200 -1,560 Descending FlightAware UK
06:45AM 53.6930 -5.0910 267° West 324 373 13,400 -1,680 Climbing FlightAware
06:45AM 53.6924 -5.1111 267° West 338 389 11,700 -1,740 Descending FlightAware UK
06:45AM 53.6900 -5.2040 267° West 314 361 12,100 -1,860 Climbing FlightAware
06:45AM 53.6892 -5.2152 267° West 334 384 10,400 -7,320 Descending FlightAware UK
06:46AM 53.6877 -5.2590 267° West 334 384 9,800 -1,680 Descending FlightAware UK
06:46AM 53.6812 -5.3010 255° West 328 377 9,400 2,520 Descending FlightAware UK
06:46AM 53.6800 -5.3080 255° West 307 353 10,900 -1,500 Climbing FlightAware
06:46AM 53.6672 -5.3525 255° West 322 371 8,800 -3,900 Descending FlightAware UK
06:47AM 53.6551 -5.3883 240° Southwest 310 357 8,700 2,880 Descending FlightAware UK
06:47AM 53.6510 -5.4000 240° Southwest 277 319 10,200 1,980 Climbing FlightAware
06:47AM 53.6370 -5.4430 241° Southwest 268 308 9,900 -3,120 Descending FlightAware
06:48AM 53.6185 -5.4984 241° Southwest 286 329 7,700 -3,720 Descending FlightAware UK
06:48AM 53.6077 -5.5307 240° Southwest 284 327 7,300 3,660 Descending FlightAware UK
06:48AM 53.6100 -5.5230 240° Southwest 264 304 9,000 -1,020 Climbing FlightAware
06:48AM 53.5969 -5.5628 240° Southwest 278 320 7,000 -3,840 Descending FlightAware UK
06:49AM 53.5860 -5.5939 240° Southwest 266 306 6,900 -720 Descending FlightAware UK
06:49AM 53.5688 -5.6109 210° Southwest 254 292 6,600 -1,020 Descending FlightAware UK
06:49AM 53.5560 -5.6357 229° Southwest 248 285 6,300 4,080 Descending FlightAware UK
06:49AM 53.5600 -5.6280 229° Southwest 225 259 7,900 4,500 Climbing FlightAware
06:49AM 53.5500 -5.6490 231° Southwest 231 266 7,500 -4,320 Descending FlightAware
06:50AM 53.5315 -5.6856 231° Southwest 248 285 5,400 -1,200 Descending FlightAware UK
06:50AM 53.5360 -5.6770 231° Southwest 232 267 7,100 -1,380 Climbing FlightAware
06:50AM 53.5192 -5.7105 231° Southwest 246 283 5,000 -4,380 Descending FlightAware UK
06:50AM 53.5069 -5.7356 231° Southwest 244 281 4,500 3,240 Descending FlightAware UK
06:50AM 53.5100 -5.7300 231° Southwest 233 268 6,200 -1,020 Climbing FlightAware
06:51AM 53.4903 -5.7690 231° Southwest 244 281 4,100 -1,500 Descending FlightAware UK
06:51AM 53.4950 -5.7600 231° Southwest 235 270 5,700 -1,380 Climbing FlightAware
06:51AM 53.4779 -5.7944 231° Southwest 242 278 3,700 -4,020 Descending FlightAware UK
06:51AM 53.4656 -5.8197 231° Southwest 242 278 3,300 -1,500 Descending FlightAware UK
06:52AM 53.4531 -5.8448 230° Southwest 238 274 2,800 2,460 Descending FlightAware UK
06:52AM 53.4530 -5.8450 230° Southwest 231 266 4,300 -1,500 Climbing FlightAware
06:52AM 53.4364 -5.8779 230° Southwest 238 274 2,200 -1,200 Descending FlightAware UK
06:52AM 53.4360 -5.8790 230° Southwest 215 247 3,800 -300 Climbing FlightAware
06:52AM 53.4222 -5.9069 230° Southwest 204 235 2,100 -600 Descending FlightAware UK
06:52AM 53.4250 -5.9020 230° Southwest 198 228 3,600 -720 Climbing FlightAware
06:53AM 53.4112 -5.9276 230° Southwest 200 230 1,900 -720 Descending FlightAware UK
06:53AM 53.4060 -5.9440 230° Southwest 186 214 3,200 2,040 Climbing FlightAware
06:53AM 53.4050 -5.9650 265° West 190 219 3,100 -480 Descending FlightAware
06:54AM 53.4060 -6.0030 273° West 192 221 2,900 -600 Descending FlightAware
06:54AM 53.4090 -6.0470 277° West 174 200 2,600 -840 Descending FlightAware
06:55AM 53.4110 -6.0880 275° West 177 204 2,100 -1,020 Descending FlightAware
06:55AM 53.4130 -6.1210 276° West 163 188 1,700 -900 Descending FlightAware
06:55AM 53.4140 -6.1380 276° West 159 183 1,500 -960 Descending FlightAware
06:56AM 53.4160 -6.1760 275° West 155 178 1,000 -900 Descending FlightAware
06:56AM 53.4180 -6.2120 275° West 155 178 600 -480 Descending FlightAware
06:57AM 53.4200 -6.2500 275° West 157 181 500 -180 Descending FlightAware
07:00AM 53.4213 -6.2701 276° West  Level Estimated
07:01AM 53.4213 -6.2701 45° Northeast  Level Estimated
07:02AM 53.4213 -6.2701 315° West  Level Estimated
07:03AM 53.4213 -6.2701 45° Northeast  Level Estimated